Time;durP1;ratioP1;P1;durP2;ratioP2;P2;SDS_P1;SDS_P2;PMS_P1;PMS_P2;Temp;Humidity;BMP_temperature;BMP_pressure;BME280_temperature;BME280_humidity;BME280_pressure;Samples;Min_cycle;Max_cycle;Signal;HPM_P1;HPM_P2
2022/06/29 00:02:22;;;;;;;0.35;0.30;;;;;;;;;;20883500;28;20680;-76
2022/06/29 00:12:24;;;;;;;0.40;0.30;;;;;;;;;;20866740;28;20228;-76
2022/06/29 00:22:27;;;;;;;0.68;0.40;;;23.60;99.90;;;;;;20865903;28;20215;-76
2022/06/29 00:32:28;;;;;;;0.47;0.38;;;;;;;;;;20865854;28;20293;-76
2022/06/29 00:42:31;;;;;;;0.75;0.30;;;;;;;;;;20834536;28;20277;-76
2022/06/29 00:52:37;;;;;;;0.50;0.40;;;;;;;;;;20879403;28;20265;-76
2022/06/29 01:02:39;;;;;;;0.80;0.40;;;;;;;;;;20879172;28;20716;-76
2022/06/29 01:12:41;;;;;;;0.65;0.30;;;;;;;;;;20868680;28;20600;-76
2022/06/29 01:22:43;;;;;;;0.30;0.30;;;;;;;;;;20877147;28;20293;-76
2022/06/29 01:32:45;;;;;;;0.30;0.30;;;;;;;;;;20860654;28;20217;-76
2022/06/29 01:42:47;;;;;;;0.40;0.30;;;;;;;;;;20859936;28;20246;-76
2022/06/29 01:52:49;;;;;;;0.20;0.20;;;;;;;;;;20858662;28;20275;-76
2022/06/29 02:02:50;;;;;;;2.53;0.50;;;;;;;;;;20858218;28;20577;-75
2022/06/29 02:12:52;;;;;;;2.10;0.50;;;;;;;;;;20873538;28;20778;-74
2022/06/29 02:22:55;;;;;;;0.32;0.30;;;23.20;99.90;;;;;;20888365;28;20221;-74
2022/06/29 02:43:17;;;;;;;2.13;0.50;;;;;;;;;;20874288;28;20211;-74
2022/06/29 02:53:19;;;;;;;0.60;0.32;;;;;;;;;;20871099;28;20248;-74
2022/06/29 03:03:21;;;;;;;0.63;0.50;;;;;;;;;;20872985;28;20241;-74
2022/06/29 03:13:23;;;;;;;0.73;0.45;;;;;;;;;;20871774;28;20707;-75
2022/06/29 03:23:25;;;;;;;0.40;0.30;;;;;;;;;;20886504;28;20201;-75
2022/06/29 03:33:27;;;;;;;1.33;0.45;;;;;;;;;;20859214;28;20227;-75
2022/06/29 03:43:29;;;;;;;0.85;0.45;;;;;;;;;;20824224;28;20589;-72
2022/06/29 03:53:31;;;;;;;0.30;0.30;;;;;;;;;;20795388;28;20935;-71
2022/06/29 04:03:32;;;;;;;0.77;0.35;;;;;;;;;;20835843;28;20677;-72
2022/06/29 04:13:34;;;;;;;0.88;0.32;;;;;;;;;;20802105;28;20245;-70
2022/06/29 04:23:36;;;;;;;0.63;0.38;;;;;;;;;;20846761;28;20690;-70
2022/06/29 04:33:50;;;;;;;0.77;0.45;;;;;;;;;;20864559;28;20613;-70
2022/06/29 04:43:52;;;;;;;0.50;0.40;;;;;;;;;;20865101;28;20209;-70
2022/06/29 04:53:56;;;;;;;0.77;0.40;;;22.60;99.90;;;;;;20882821;28;20220;-71
2022/06/29 05:03:59;;;;;;;0.90;0.50;;;22.80;99.90;;;;;;20868963;28;20298;-72
2022/06/29 05:14:01;;;;;;;1.75;0.50;;;;;;;;;;20842525;28;20296;-72
2022/06/29 05:24:03;;;;;;;0.90;0.40;;;;;;;;;;20890705;28;20204;-71
2022/06/29 05:34:05;;;;;;;2.30;0.50;;;;;;;;;;20856301;28;20595;-71
2022/06/29 05:44:07;;;;;;;1.15;0.50;;;;;;;;;;20842059;28;20692;-71
2022/06/29 05:54:08;;;;;;;0.70;0.43;;;;;;;;;;20871671;28;20220;-71
2022/06/29 06:04:10;;;;;;;0.85;0.52;;;;;;;;;;20826798;28;1218767;-71
2022/06/29 06:14:12;;;;;;;0.88;0.60;;;;;;;;;;20841697;28;20758;-71
2022/06/29 06:24:14;;;;;;;0.98;0.50;;;;;;;;;;20857386;28;20691;-70
2022/06/29 06:34:16;;;;;;;2.70;0.60;;;;;;;;;;20840260;28;20246;-71
2022/06/29 06:44:18;;;;;;;0.70;0.60;;;;;;;;;;20847681;28;20289;-71
2022/06/29 06:54:19;;;;;;;1.08;0.50;;;;;;;;;;20788921;28;20250;-71
2022/06/29 07:04:21;;;;;;;0.60;0.43;;;;;;;;;;20786782;28;20261;-73
2022/06/29 07:14:23;;;;;;;1.10;0.60;;;;;;;;;;20755310;28;20593;-73
2022/06/29 07:24:25;;;;;;;4.22;0.63;;;;;;;;;;20770170;28;20277;-73
2022/06/29 07:34:27;;;;;;;1.08;0.70;;;;;;;;;;20831172;28;20228;-75
2022/06/29 07:44:29;;;;;;;0.60;0.50;;;;;;;;;;20840929;28;20219;-72
2022/06/29 07:54:30;;;;;;;0.98;0.60;;;;;;;;;;20820157;28;20225;-72
2022/06/29 08:04:32;;;;;;;1.17;0.73;;;;;;;;;;20768665;28;20228;-74
2022/06/29 08:14:34;;;;;;;1.88;1.13;;;;;;;;;;20767229;28;20762;-73
2022/06/29 08:24:36;;;;;;;1.02;0.70;;;;;;;;;;20767264;28;20213;-72
2022/06/29 08:34:40;;;;;;;1.05;0.73;;;25.30;98.10;;;;;;20766691;28;20224;-72
2022/06/29 08:44:42;;;;;;;0.85;0.60;;;;;;;;;;20798141;28;20567;-73
2022/06/29 08:54:46;;;;;;;2.17;0.60;;;25.90;99.90;;;;;;20797332;28;20222;-72
2022/06/29 09:04:50;;;;;;;1.00;0.60;;;;;;;;;;20775241;28;20280;-74
2022/06/29 09:14:52;;;;;;;1.42;0.70;;;;;;;;;;20822732;28;21017;-72
2022/06/29 09:24:54;;;;;;;1.05;0.70;;;;;;;;;;20858209;28;20210;-72
2022/06/29 09:34:56;;;;;;;1.85;0.95;;;;;;;;;;20849849;28;20221;-72
2022/06/29 09:44:58;;;;;;;1.52;0.70;;;;;;;;;;20805045;28;20220;-72
2022/06/29 09:55:00;;;;;;;2.20;0.80;;;27.10;99.90;;;;;;20874863;28;20223;-75
2022/06/29 10:05:04;;;;;;;1.02;0.70;;;;;;;;;;20874619;28;20219;-72
2022/06/29 10:15:05;;;;;;;1.35;0.68;;;;;;;;;;20873719;28;20641;-75
2022/06/29 10:25:10;;;;;;;1.45;0.88;;;;;;;;;;20873163;28;20254;-73
2022/06/29 10:35:12;;;;;;;1.30;0.80;;;28.00;99.20;;;;;;20856086;28;20701;-72
2022/06/29 10:45:16;;;;;;;1.35;0.90;;;;;;;;;;20855751;28;20208;-72
2022/06/29 10:55:18;;;;;;;1.33;0.73;;;27.90;99.90;;;;;;20887860;28;20244;-72
2022/06/29 11:05:20;;;;;;;0.73;0.68;;;;;;;;;;20871454;28;20278;-72
2022/06/29 11:15:41;;;;;;;2.20;0.70;;;;;;;;;;20870599;28;20275;-72
2022/06/29 11:25:46;;;;;;;4.00;1.38;;;;;;;;;;20875523;28;20227;-75
2022/06/29 11:35:47;;;;;;;1.92;0.90;;;;;;;;;;20886725;28;20758;-72
2022/06/29 11:45:49;;;;;;;1.23;0.77;;;;;;;;;;20869560;28;20213;-72
2022/06/29 11:55:57;;;;;;;0.70;0.60;;;;;;;;;;20883862;28;20224;-74
2022/06/29 12:06:00;;;;;;;0.60;0.50;;;28.70;99.90;;;;;;20899261;28;20260;-75
2022/06/29 12:16:02;;;;;;;1.08;0.70;;;;;;;;;;20834360;28;20260;-72
2022/06/29 12:26:06;;;;;;;1.17;0.63;;;;;;;;;;20883204;28;20209;-74
2022/06/29 12:36:07;;;;;;;2.38;0.80;;;;;;;;;;20881029;28;20307;-76
2022/06/29 12:46:09;;;;;;;0.63;0.55;;;;;;;;;;20898008;28;20263;-74
2022/06/29 12:56:12;;;;;;;3.45;0.65;;;;;;;;;;20880935;28;20778;-76
2022/06/29 13:06:14;;;;;;;2.08;0.70;;;;;;;;;;20895772;28;20217;-75
2022/06/29 13:16:15;;;;;;;0.88;0.60;;;;;;;;;;20879126;28;20221;-76
2022/06/29 13:26:18;;;;;;;0.70;0.60;;;;;;;;;;20877826;28;20228;-75
2022/06/29 13:36:19;;;;;;;1.70;0.70;;;;;;;;;;20876613;28;20252;-79
2022/06/29 13:46:21;;;;;;;1.23;0.70;;;;;;;;;;20875142;28;20264;-79
2022/06/29 13:56:23;;;;;;;0.95;0.60;;;;;;;;;;20875143;28;20282;-78
2022/06/29 14:06:26;;;;;;;1.65;0.93;;;29.40;99.90;;;;;;20874464;28;20221;-78
2022/06/29 14:16:28;;;;;;;1.50;0.70;;;;;;;;;;20873602;28;20247;-76
2022/06/29 14:26:30;;;;;;;1.65;0.90;;;;;;;;;;20873524;28;20771;-77
2022/06/29 14:36:32;;;;;;;1.85;0.75;;;;;;;;;;20801850;28;20322;-76
2022/06/29 14:46:34;;;;;;;2.22;0.90;;;;;;;;;;20809500;28;20217;-75
2022/06/29 14:56:36;;;;;;;1.35;0.70;;;29.60;99.00;;;;;;20845934;28;20249;-74
2022/06/29 15:06:42;;;;;;;3.80;1.10;;;;;;;;;;20794453;28;20247;-74
2022/06/29 15:16:44;;;;;;;3.13;1.08;;;;;;;;;;20782912;28;20229;-75
2022/06/29 15:26:46;;;;;;;2.60;0.90;;;;;;;;;;20838732;28;20218;-75
2022/06/29 15:47:08;;;;;;;1.90;0.90;;;;;;;;;;20872051;28;20257;-76
2022/06/29 15:57:10;;;;;;;1.08;0.60;;;;;;;;;;20853091;28;20222;-75
2022/06/29 16:07:12;;;;;;;1.50;0.88;;;;;;;;;;20884994;28;20767;-76
2022/06/29 16:17:14;;;;;;;0.85;0.60;;;;;;;;;;20836002;28;20245;-75
2022/06/29 16:27:16;;;;;;;1.20;0.80;;;;;;;;;;20861721;28;20246;-76
2022/06/29 16:37:17;;;;;;;1.15;0.70;;;;;;;;;;20829023;28;20226;-75
2022/06/29 16:47:19;;;;;;;1.50;0.70;;;;;;;;;;20780115;28;20216;-75
2022/06/29 16:57:21;;;;;;;1.35;0.85;;;;;;;;;;20768156;28;20234;-74
2022/06/29 17:07:23;;;;;;;1.02;0.70;;;;;;;;;;20831969;28;20252;-76
2022/06/29 17:17:25;;;;;;;0.75;0.60;;;;;;;;;;20715456;28;20225;-75
2022/06/29 17:27:28;;;;;;;1.38;0.80;;;;;;;;;;20816197;28;20291;-76
2022/06/29 17:37:30;;;;;;;1.52;0.70;;;;;;;;;;20807692;28;20697;-77
2022/06/29 17:47:32;;;;;;;2.35;1.15;;;;;;;;;;20814723;28;20801;-76
2022/06/29 17:57:34;;;;;;;2.78;0.90;;;;;;;;;;20825214;28;20230;-77
2022/06/29 18:07:36;;;;;;;1.50;0.90;;;;;;;;;;20839827;28;20763;-76
2022/06/29 18:17:38;;;;;;;0.95;0.68;;;;;;;;;;20793900;28;20245;-76
2022/06/29 18:27:40;;;;;;;1.48;0.90;;;;;;;;;;20827328;28;20259;-76
2022/06/29 18:37:42;;;;;;;1.70;0.80;;;;;;;;;;20881711;28;20233;-74
2022/06/29 18:47:44;;;;;;;1.10;0.77;;;;;;;;;;20853754;28;20585;-75
2022/06/29 18:57:48;;;;;;;3.17;0.70;;;;;;;;;;20869312;28;20280;-75
2022/06/29 19:07:50;;;;;;;2.50;0.90;;;;;;;;;;20835849;28;20205;-75
2022/06/29 19:17:52;;;;;;;4.40;0.85;;;;;;;;;;20771779;28;20263;-76
2022/06/29 19:27:54;;;;;;;3.58;0.90;;;;;;;;;;20775186;28;20245;-76
2022/06/29 19:37:56;;;;;;;1.73;1.00;;;;;;;;;;20786709;28;20226;-73
2022/06/29 19:47:58;;;;;;;1.05;0.77;;;;;;;;;;20781825;28;20747;-73
2022/06/29 19:58:00;;;;;;;3.08;1.00;;;;;;;;;;20867370;28;20560;-72
2022/06/29 20:08:05;;;;;;;2.38;0.90;;;;;;;;;;20875639;28;20208;-72
2022/06/29 20:18:08;;;;;;;2.63;1.00;;;;;;;;;;20840138;28;20228;-72
2022/06/29 20:28:11;;;;;;;3.40;0.90;;;;;;;;;;20873518;28;20262;-73
2022/06/29 20:38:12;;;;;;;1.48;1.00;;;;;;;;;;20855872;28;20272;-73
2022/06/29 20:48:14;;;;;;;3.38;1.00;;;;;;;;;;20854814;28;20259;-72
2022/06/29 20:58:18;;;;;;;2.38;1.10;;;27.30;99.90;;;;;;20874353;28;20237;-73
2022/06/29 21:08:20;;;;;;;1.50;1.00;;;27.20;99.90;;;;;;20863085;28;20220;-73
2022/06/29 21:18:22;;;;;;;2.15;1.00;;;;;;;;;;20830591;28;20631;-73
2022/06/29 21:28:24;;;;;;;1.75;1.05;;;;;;;;;;20837255;28;20348;-73
2022/06/29 21:38:26;;;;;;;2.42;1.25;;;;;;;;;;20893522;28;20209;-72
2022/06/29 21:58:49;;;;;;;1.50;1.00;;;;;;;;;;20878220;28;20255;-72
2022/06/29 22:08:51;;;;;;;1.50;1.00;;;26.40;99.90;;;;;;20874305;28;20277;-72
2022/06/29 22:18:54;;;;;;;3.50;1.20;;;;;;;;;;20857771;28;20220;-72
2022/06/29 22:28:56;;;;;;;2.00;1.27;;;;;;;;;;20857553;28;20216;-72
2022/06/29 22:38:58;;;;;;;2.33;1.27;;;;;;;;;;20872735;28;20777;-72
2022/06/29 22:48:59;;;;;;;3.25;1.25;;;;;;;;;;20855824;28;20295;-72
2022/06/29 22:59:02;;;;;;;1.48;1.02;;;;;;;;;;20887295;28;20294;-72
2022/06/29 23:09:04;;;;;;;1.42;0.98;;;;;;;;;;20854697;28;20281;-72
2022/06/29 23:19:06;;;;;;;3.38;1.15;;;;;;;;;;20887468;28;20213;-72
2022/06/29 23:29:08;;;;;;;1.73;1.00;;;;;;;;;;20871910;28;20694;-73
2022/06/29 23:39:10;;;;;;;1.90;1.17;;;;;;;;;;20870632;28;20778;-72
2022/06/29 23:49:12;;;;;;;3.15;1.00;;;;;;;;;;20886697;28;20679;-72
2022/06/29 23:59:14;;;;;;;3.60;1.13;;;;;;;;;;20869405;28;20599;-72
